Tiffin, Iowa
Current Conditions -  °F | °C
As of 3:52 PM on Wednesday 22 Oct 2014 (Local Time) from KIOW Reporting Station
Clear Clear  
Wind Chill: 60°   Ceiling: Unl
Heat Index: 60°   Visibility: 10mi
Dew Point: 42°   Wind: 10mph
Humidity: 51%   Direction: 130°SE
Pressure: 30.22"   Gusts: NA
Location:  41.71°N, 91.66°W
Report Text: KIOW 222052Z AUTO 13009KT 10SM CLR 16/06 A3022 RMK AO2 SLP236 T01560056 56024
Loading
Personal Weather Stations






























Interactive Weather Map
Tropical Storm Tracking
New forecast layout! Learn more

10-Day Weather Forecast

Advertisements
Track Severe Weather on mobile